createdAt,value
2019-02-15T00:01:44.357Z,99320.80
2019-02-15T00:04:12.640Z,99319.36
2019-02-15T00:06:40.894Z,99312.42
2019-02-15T00:09:09.255Z,99322.91
2019-02-15T00:11:37.529Z,99316.63
2019-02-15T00:14:05.881Z,99314.97
2019-02-15T00:16:34.184Z,99312.28
2019-02-15T00:19:04.134Z,99311.64
2019-02-15T00:21:32.447Z,99308.42
2019-02-15T00:24:00.730Z,98929.73
2019-02-15T00:26:28.970Z,99306.75
2019-02-15T00:28:57.239Z,99314.02
2019-02-15T00:31:25.606Z,99307.30
2019-02-15T00:33:53.941Z,99311.00
2019-02-15T00:36:22.234Z,99316.27
2019-02-15T00:38:50.584Z,99314.28
2019-02-15T00:41:18.859Z,99311.59
2019-02-15T00:43:47.152Z,99308.91
2019-02-15T00:46:17.059Z,99309.50
2019-02-15T00:48:45.339Z,99317.50
2019-02-15T00:51:24.154Z,99139.53
2019-02-15T00:53:54.066Z,99320.89
2019-02-15T00:56:23.977Z,99318.57
2019-02-15T00:59:10.087Z,99314.50
2019-02-15T01:01:39.991Z,99323.36
2019-02-15T01:04:11.609Z,99317.66
2019-02-15T01:06:57.652Z,99322.39
2019-02-15T01:09:30.577Z,99319.02
2019-02-15T01:12:06.716Z,99320.94
2019-02-15T01:14:35.016Z,99322.50
2019-02-15T01:17:03.809Z,99319.48
2019-02-15T01:19:32.103Z,99323.78
2019-02-15T01:22:00.415Z,99325.27
2019-02-15T01:24:28.686Z,99325.64
2019-02-15T01:27:01.357Z,99323.98
2019-02-15T01:29:37.424Z,99326.45
2019-02-15T01:32:07.380Z,99325.36
2019-02-15T01:34:40.266Z,99324.56
2019-02-15T01:37:22.208Z,99321.44
2019-02-15T01:39:53.088Z,99318.97
2019-02-15T01:42:23.034Z,99323.76
2019-02-15T01:44:52.962Z,99319.19
2019-02-15T01:47:21.417Z,99314.03
2019-02-15T01:49:49.699Z,99310.88
2019-02-15T01:52:17.990Z,99307.64
2019-02-15T01:54:46.271Z,99317.88
2019-02-15T01:57:14.543Z,99305.69
2019-02-15T01:59:42.821Z,98807.16
2019-02-15T02:02:11.156Z,99308.81
2019-02-15T02:04:39.798Z,99306.48
2019-02-15T02:07:08.158Z,99303.00
2019-02-15T02:09:36.454Z,99302.31
2019-02-15T02:12:05.613Z,99301.98
2019-02-15T02:14:33.902Z,99302.64
2019-02-15T02:17:02.170Z,99297.05
2019-02-15T02:19:30.470Z,99298.07
2019-02-15T02:21:58.749Z,99295.83
2019-02-15T02:24:27.064Z,99291.39
2019-02-15T02:26:55.396Z,99292.52
2019-02-15T02:29:23.666Z,99289.40
2019-02-15T02:31:51.966Z,99286.28
2019-02-15T02:34:20.205Z,99288.20
2019-02-15T02:36:50.829Z,99284.50
2019-02-15T02:39:19.186Z,99282.80
2019-02-15T02:41:47.448Z,99279.86
2019-02-15T02:44:15.726Z,99279.53
2019-02-15T02:46:43.984Z,99280.08
2019-02-15T02:49:12.297Z,99290.85
2019-02-15T02:51:40.573Z,99288.16
2019-02-15T02:54:08.883Z,99285.70
2019-02-15T02:56:37.142Z,99285.59
2019-02-15T02:59:05.404Z,99280.22
2019-02-15T03:01:33.691Z,99277.76
2019-02-15T03:04:01.965Z,99285.23
2019-02-15T03:06:30.223Z,99279.75
2019-02-15T03:08:58.487Z,99288.92
2019-02-15T03:11:26.753Z,99285.45
2019-02-15T03:13:55.043Z,99285.66
2019-02-15T03:16:23.310Z,99278.27
2019-02-15T03:18:51.577Z,99272.79
2019-02-15T03:21:19.850Z,99276.95
2019-02-15T03:23:48.156Z,99273.37
2019-02-15T03:26:16.473Z,99270.22
2019-02-15T03:28:44.736Z,99276.95
2019-02-15T03:31:13.000Z,99273.80
2019-02-15T03:33:41.277Z,99263.25
2019-02-15T03:36:11.202Z,99267.78
2019-02-15T03:38:41.116Z,99270.20
2019-02-15T03:41:11.027Z,99275.81
2019-02-15T03:43:39.300Z,99267.30
2019-02-15T03:46:07.562Z,99272.45
2019-02-15T03:48:35.824Z,99268.72
2019-02-15T03:51:04.081Z,99269.92
2019-02-15T03:53:32.342Z,99266.11
2019-02-15T03:56:00.602Z,99272.02
2019-02-15T03:58:28.876Z,99272.24
2019-02-15T04:00:57.134Z,99272.13
2019-02-15T04:03:25.418Z,99275.14
2019-02-15T04:05:53.689Z,99267.89
2019-02-15T04:08:22.021Z,99264.73
2019-02-15T04:10:50.288Z,99267.67
2019-02-15T04:13:18.565Z,99260.13
2019-02-15T04:15:46.852Z,99258.03
2019-02-15T04:18:15.105Z,99262.27
2019-02-15T04:20:43.403Z,99259.11
2019-02-15T04:23:11.640Z,99261.94
2019-02-15T04:25:39.896Z,99266.19
2019-02-15T04:28:08.170Z,99265.64
2019-02-15T04:30:36.436Z,99261.25
2019-02-15T04:33:04.728Z,99258.90
2019-02-15T04:35:32.999Z,99257.70
2019-02-15T04:38:01.254Z,99260.20
2019-02-15T04:40:29.546Z,99259.55
2019-02-15T04:42:57.811Z,99256.39
2019-02-15T04:45:26.066Z,99247.87
2019-02-15T04:47:54.512Z,99248.88
2019-02-15T04:50:22.795Z,99246.34
2019-02-15T04:52:51.072Z,99247.68
2019-02-15T04:55:19.342Z,99243.41
2019-02-15T04:57:48.293Z,99243.98
2019-02-15T05:00:16.541Z,99246.66
2019-02-15T05:02:47.396Z,99237.48
2019-02-15T05:05:15.654Z,99240.20
2019-02-15T05:07:43.922Z,99246.95
2019-02-15T05:10:12.220Z,99250.53
2019-02-15T05:12:40.479Z,99255.45
2019-02-15T05:15:09.220Z,99261.40
2019-02-15T05:17:37.507Z,99258.39
2019-02-15T05:20:07.414Z,99261.28
2019-02-15T05:22:35.683Z,99260.84
2019-02-15T05:25:04.017Z,99261.09
2019-02-15T05:27:32.282Z,99261.20
2019-02-15T05:30:00.578Z,99257.61
2019-02-15T05:32:28.886Z,99258.52
2019-02-15T05:34:57.115Z,99256.28
2019-02-15T05:37:25.373Z,99256.28
2019-02-15T05:39:53.630Z,99254.03
2019-02-15T05:42:21.903Z,99251.89
2019-02-15T05:44:50.165Z,99249.10
2019-02-15T05:47:18.472Z,99250.11
2019-02-15T05:49:46.743Z,99252.14
2019-02-15T05:52:15.000Z,99256.16
2019-02-15T05:54:43.274Z,99258.73
2019-02-15T05:57:11.542Z,99258.65
2019-02-15T05:59:39.804Z,99260.89
2019-02-15T06:02:08.143Z,99261.23
2019-02-15T06:04:36.398Z,99255.06
2019-02-15T06:07:04.705Z,99248.70
2019-02-15T06:09:32.967Z,99241.66
2019-02-15T06:12:01.225Z,99240.67
2019-02-15T06:14:29.501Z,99245.80
2019-02-15T06:16:57.754Z,99247.49
2019-02-15T06:19:26.149Z,99247.73
2019-02-15T06:21:54.419Z,99246.05
2019-02-15T06:24:22.681Z,99247.61
2019-02-15T06:26:51.021Z,99244.13
2019-02-15T06:29:19.317Z,99248.06
2019-02-15T06:31:47.580Z,99254.55
2019-02-15T06:34:15.850Z,99243.82
2019-02-15T06:36:44.140Z,99243.48
2019-02-15T06:39:12.399Z,99247.16
2019-02-15T06:41:40.670Z,99254.45
2019-02-15T06:44:08.932Z,99257.69
2019-02-15T06:46:37.221Z,99253.89
2019-02-15T06:49:05.521Z,99254.98
2019-02-15T06:51:33.787Z,99257.02
2019-02-15T06:54:02.147Z,99254.09
2019-02-15T06:56:30.548Z,99261.48
2019-02-15T06:59:09.368Z,99261.26
2019-02-15T07:01:39.273Z,99263.72
2019-02-15T07:04:21.320Z,99264.17
2019-02-15T07:06:49.599Z,99268.63
2019-02-15T07:09:17.849Z,99270.31
2019-02-15T07:11:46.113Z,99270.75
2019-02-15T07:14:14.377Z,99267.63
2019-02-15T07:16:42.717Z,99268.29
2019-02-15T07:19:10.972Z,99268.27
2019-02-15T07:21:39.264Z,99264.14
2019-02-15T07:24:07.532Z,99264.23
2019-02-15T07:26:35.797Z,99267.36
2019-02-15T07:29:04.087Z,99265.00
2019-02-15T07:31:32.348Z,99267.45
2019-02-15T07:34:00.613Z,99268.80
2019-02-15T07:36:28.879Z,99268.11
2019-02-15T07:38:57.144Z,99273.70
2019-02-15T07:41:25.410Z,99279.62
2019-02-15T07:43:53.676Z,99277.81
2019-02-15T07:46:22.040Z,99275.67
2019-02-15T07:48:50.307Z,99272.53
2019-02-15T07:51:18.567Z,99270.14
2019-02-15T07:53:46.844Z,99267.89
2019-02-15T07:56:15.130Z,99270.03
2019-02-15T07:58:43.390Z,99270.14
2019-02-15T08:01:11.654Z,99260.27
2019-02-15T08:03:39.921Z,99261.94
2019-02-15T08:06:08.177Z,99261.14
2019-02-15T08:08:36.465Z,99258.75
2019-02-15T08:11:04.723Z,99244.48
2019-02-15T08:13:32.986Z,99241.11
2019-02-15T08:16:02.783Z,99239.14
2019-02-15T08:18:31.315Z,99235.86
2019-02-15T08:20:59.651Z,99245.58
2019-02-15T08:23:27.947Z,99235.18
2019-02-15T08:25:56.209Z,99229.42
2019-02-15T08:28:24.460Z,99226.09
2019-02-15T08:30:52.729Z,99227.04
2019-02-15T08:33:20.990Z,99223.37
2019-02-15T08:35:49.262Z,99226.54
2019-02-15T08:38:17.570Z,99220.61
2019-02-15T08:40:45.824Z,99224.44
2019-02-15T08:43:14.093Z,99218.58
2019-02-15T08:45:42.360Z,99213.38
2019-02-15T08:48:10.619Z,99218.30
2019-02-15T08:50:38.891Z,99211.75
2019-02-15T08:53:07.158Z,99207.99
2019-02-15T08:55:35.434Z,99200.13
2019-02-15T08:58:03.709Z,99199.86
2019-02-15T09:00:31.968Z,99195.22
2019-02-15T09:03:00.245Z,99202.02
2019-02-15T09:05:28.523Z,99199.98
2019-02-15T09:07:56.785Z,99195.93
2019-02-15T09:10:25.049Z,99203.54
2019-02-15T09:12:53.301Z,99210.20
2019-02-15T09:15:23.430Z,99218.44
2019-02-15T09:17:51.718Z,99233.20
2019-02-15T09:20:20.005Z,99239.09
2019-02-15T09:22:48.268Z,99247.61
2019-02-15T09:25:16.520Z,99253.66
2019-02-15T09:27:46.425Z,99249.00
2019-02-15T09:30:15.093Z,99258.19
2019-02-15T09:32:43.351Z,99257.58
2019-02-15T09:35:12.186Z,99256.19
2019-02-15T09:37:40.441Z,99252.52
2019-02-15T09:40:10.134Z,99253.93
2019-02-15T09:42:38.404Z,99263.36
2019-02-15T09:45:09.926Z,99251.41
2019-02-15T09:47:38.190Z,99246.91
2019-02-15T09:50:09.746Z,99263.47
2019-02-15T09:52:38.771Z,99252.32
2019-02-15T09:55:07.072Z,99247.92
2019-02-15T09:57:35.334Z,99253.94
2019-02-15T10:00:03.785Z,99254.67
2019-02-15T10:02:32.058Z,99254.19
2019-02-15T10:05:00.370Z,99260.45
2019-02-15T10:07:28.643Z,99258.85
2019-02-15T10:09:56.902Z,99256.84
2019-02-15T10:12:25.171Z,99255.92
2019-02-15T10:14:53.441Z,99257.96
2019-02-15T10:17:21.713Z,99258.53
2019-02-15T10:19:49.976Z,99256.06
2019-02-15T10:22:18.248Z,99256.81
2019-02-15T10:24:46.524Z,99258.77
2019-02-15T10:27:14.789Z,99258.59
2019-02-15T10:29:43.058Z,99251.13
2019-02-15T10:32:11.321Z,99245.61
2019-02-15T10:34:39.652Z,99247.30
2019-02-15T10:37:07.946Z,99244.31
2019-02-15T10:39:36.275Z,99243.25
2019-02-15T10:42:04.544Z,99232.22
2019-02-15T10:44:32.803Z,99231.19
2019-02-15T10:47:01.073Z,99227.69
2019-02-15T10:49:29.372Z,99218.63
2019-02-15T10:51:57.642Z,99217.20
2019-02-15T10:54:25.898Z,99212.26
2019-02-15T10:56:54.260Z,99211.72
2019-02-15T10:59:22.521Z,99205.79
2019-02-15T11:01:50.781Z,99216.41
2019-02-15T11:04:19.065Z,99216.63
2019-02-15T11:06:47.390Z,99206.61
2019-02-15T11:09:15.730Z,99203.95
2019-02-15T11:11:43.991Z,99198.86
2019-02-15T11:14:12.258Z,99195.48
2019-02-15T11:16:46.953Z,99201.91
2019-02-15T11:19:10.530Z,99197.18
2019-02-15T11:21:38.793Z,99190.80
2019-02-15T11:24:07.079Z,99191.02
2019-02-15T11:26:35.361Z,99195.56
2019-02-15T11:29:03.627Z,99188.27
2019-02-15T11:31:31.881Z,99184.02
2019-02-15T11:34:00.146Z,99184.20
2019-02-15T11:36:29.804Z,99180.05
2019-02-15T11:38:58.254Z,99181.55
2019-02-15T11:41:26.591Z,99172.64
2019-02-15T11:43:54.848Z,99174.31
2019-02-15T11:46:23.115Z,99175.56
2019-02-15T11:48:51.382Z,99170.07
2019-02-15T11:51:19.653Z,99164.27
2019-02-15T11:53:48.130Z,99162.72
2019-02-15T11:56:16.366Z,99151.98
2019-02-15T11:58:44.632Z,99154.17
2019-02-15T12:01:12.893Z,99155.91
2019-02-15T12:03:41.156Z,99161.63
2019-02-15T12:06:09.442Z,99146.75
2019-02-15T12:08:37.707Z,99139.62
2019-02-15T12:11:05.966Z,99136.20
2019-02-15T12:13:34.324Z,99137.92
2019-02-15T12:16:02.732Z,99130.70
2019-02-15T12:18:37.809Z,99130.36
2019-02-15T12:21:06.173Z,99120.78
2019-02-15T12:23:34.649Z,99121.58
2019-02-15T12:26:02.908Z,99117.46
2019-02-15T12:28:31.209Z,99118.08
2019-02-15T12:30:59.460Z,99108.72
2019-02-15T12:33:27.734Z,99109.72
2019-02-15T12:35:56.014Z,99109.81
2019-02-15T12:38:24.284Z,99100.50
2019-02-15T12:40:52.621Z,99100.63
2019-02-15T12:43:21.048Z,99095.70
2019-02-15T12:45:49.535Z,99089.41
2019-02-15T12:48:17.868Z,99083.58
2019-02-15T12:50:46.214Z,99085.09
2019-02-15T12:53:14.463Z,99081.48
2019-02-15T12:55:42.732Z,99081.10
2019-02-15T12:58:11.096Z,99080.05
2019-02-15T13:00:39.367Z,99080.55
2019-02-15T13:03:07.818Z,99078.95
2019-02-15T13:05:36.101Z,99077.83
2019-02-15T13:08:04.360Z,99069.82
2019-02-15T13:10:34.549Z,99063.63
2019-02-15T13:13:02.804Z,99063.62
2019-02-15T13:15:31.241Z,99057.05
2019-02-15T13:17:59.511Z,99056.45
2019-02-15T13:20:27.891Z,99058.59
2019-02-15T13:22:56.292Z,99054.02
2019-02-15T13:25:24.745Z,99052.51
2019-02-15T13:27:53.235Z,99041.34
2019-02-15T13:30:21.664Z,99038.56
2019-02-15T13:32:50.109Z,99041.47
2019-02-15T13:35:23.469Z,99039.55
2019-02-15T13:37:52.037Z,99031.19
2019-02-15T13:40:20.323Z,99022.94
2019-02-15T13:42:48.668Z,99027.98
2019-02-15T13:45:17.217Z,98376.35
2019-02-15T13:47:45.646Z,99022.04
2019-02-15T13:50:15.036Z,99016.61
2019-02-15T13:52:43.990Z,99016.41
2019-02-15T13:55:12.339Z,99014.33
2019-02-15T13:57:40.632Z,99012.41
2019-02-15T14:00:14.465Z,99011.18
2019-02-15T14:02:43.239Z,99010.28
2019-02-15T14:05:12.354Z,99003.83
2019-02-15T14:07:41.343Z,99001.81
2019-02-15T14:10:14.295Z,99001.56
2019-02-15T14:12:42.657Z,98999.55
2019-02-15T14:15:12.146Z,98987.17
2019-02-15T14:17:44.901Z,98985.39
2019-02-15T14:20:13.962Z,98991.34
2019-02-15T14:22:42.224Z,98992.57
2019-02-15T14:25:12.675Z,98987.22
2019-02-15T14:27:40.979Z,98989.94
2019-02-15T14:30:11.735Z,98986.25
2019-02-15T14:32:40.090Z,98984.80
2019-02-15T14:35:10.158Z,98976.41
2019-02-15T14:37:38.394Z,98976.12
2019-02-15T14:40:09.112Z,98974.11
2019-02-15T14:42:37.412Z,98978.66
2019-02-15T14:45:07.461Z,98981.83
2019-02-15T14:47:35.777Z,98981.20
2019-02-15T14:50:04.619Z,98980.25
2019-02-15T14:52:32.938Z,98978.30
2019-02-15T14:55:01.203Z,98979.23
2019-02-15T14:57:29.463Z,98974.22
2019-02-15T14:59:57.830Z,98969.58
2019-02-15T15:02:26.225Z,98969.28
2019-02-15T15:04:54.508Z,98963.63
2019-02-15T15:07:22.778Z,98959.30
2019-02-15T15:09:51.064Z,98962.70
2019-02-15T15:12:19.338Z,98966.00
2019-02-15T15:14:47.636Z,98962.45
2019-02-15T15:17:15.900Z,98968.14
2019-02-15T15:19:45.082Z,98963.87
2019-02-15T15:22:17.717Z,98957.30
2019-02-15T15:24:46.072Z,98955.84
2019-02-15T15:27:23.140Z,98952.53
2019-02-15T15:29:59.993Z,98949.66
2019-02-15T15:32:28.271Z,98950.56
2019-02-15T15:35:02.110Z,98949.09
2019-02-15T15:37:30.374Z,98943.06
2019-02-15T15:39:58.657Z,98948.87
2019-02-15T15:42:27.009Z,98942.69
2019-02-15T15:44:55.363Z,98943.66
2019-02-15T15:47:23.739Z,98941.22
2019-02-15T15:49:52.036Z,98937.88
2019-02-15T15:52:20.394Z,98935.67
2019-02-15T15:54:48.677Z,98939.82
2019-02-15T15:57:16.965Z,98942.61
2019-02-15T15:59:45.238Z,98939.37
2019-02-15T16:02:13.535Z,98064.20
2019-02-15T16:04:41.792Z,98943.65
2019-02-15T16:07:10.059Z,98941.72
2019-02-15T16:09:38.318Z,98942.73
2019-02-15T16:12:06.569Z,98944.08
2019-02-15T16:14:34.856Z,98939.88
2019-02-15T16:17:03.121Z,98947.36
2019-02-15T16:19:31.385Z,98945.51
2019-02-15T16:21:59.675Z,98947.66
2019-02-15T16:24:27.937Z,98944.76
2019-02-15T16:26:56.238Z,98948.66
2019-02-15T16:29:24.562Z,98944.13
2019-02-15T16:31:52.829Z,98948.70
2019-02-15T16:34:21.094Z,98944.98
2019-02-15T16:36:49.390Z,98943.72
2019-02-15T16:39:17.696Z,98943.35
2019-02-15T16:41:45.981Z,98941.61
2019-02-15T16:44:14.248Z,98944.34
2019-02-15T16:46:42.515Z,98939.92
2019-02-15T16:49:10.791Z,98940.79
2019-02-15T16:51:39.047Z,98940.55
2019-02-15T16:54:07.315Z,98943.17
2019-02-15T16:56:35.577Z,98948.87
2019-02-15T16:59:03.843Z,98955.23
2019-02-15T17:01:32.116Z,98949.53
2019-02-15T17:04:00.378Z,98944.09
2019-02-15T17:06:28.662Z,98948.16
2019-02-15T17:08:56.923Z,98945.62
2019-02-15T17:11:25.178Z,98953.41
2019-02-15T17:13:53.482Z,98956.99
2019-02-15T17:16:21.727Z,98957.43
2019-02-15T17:18:52.235Z,98959.47
2019-02-15T17:21:19.970Z,98964.95
2019-02-15T17:23:48.232Z,98964.17
2019-02-15T17:26:16.517Z,98968.59
2019-02-15T17:28:44.775Z,98966.69
2019-02-15T17:31:13.035Z,98970.67
2019-02-15T17:33:41.300Z,98965.52
2019-02-15T17:36:09.563Z,98969.69
2019-02-15T17:38:37.884Z,98972.08
2019-02-15T17:41:06.165Z,98975.71
2019-02-15T17:43:34.450Z,98965.97
2019-02-15T17:46:02.719Z,98970.31
2019-02-15T17:48:30.973Z,98975.56
2019-02-15T17:50:59.258Z,98967.41
2019-02-15T17:53:27.529Z,98964.95
2019-02-15T17:55:55.805Z,98963.33
2019-02-15T17:58:24.062Z,98962.27
2019-02-15T18:00:52.331Z,98964.06
2019-02-15T18:03:20.613Z,98961.23
2019-02-15T18:05:48.867Z,98963.94
2019-02-15T18:08:17.133Z,98956.28
2019-02-15T18:10:45.393Z,98952.41
2019-02-15T18:13:13.658Z,98949.19
2019-02-15T18:15:41.929Z,98953.13
2019-02-15T18:18:10.191Z,98949.57
2019-02-15T18:20:38.478Z,98954.90
2019-02-15T18:23:06.749Z,98947.63
2019-02-15T18:25:35.028Z,98949.39
2019-02-15T18:28:03.286Z,98948.36
2019-02-15T18:30:31.576Z,98948.70
2019-02-15T18:32:59.838Z,98945.86
2019-02-15T18:35:28.456Z,98946.97
2019-02-15T18:37:56.719Z,98940.73
2019-02-15T18:40:24.978Z,98937.54
2019-02-15T18:42:53.390Z,98938.27
2019-02-15T18:45:21.879Z,98945.38
2019-02-15T18:47:50.471Z,98942.55
2019-02-15T18:50:18.914Z,98940.25
2019-02-15T18:52:47.191Z,98942.73
2019-02-15T18:55:15.462Z,98944.50
2019-02-15T18:57:43.715Z,98948.77
2019-02-15T19:00:15.884Z,98945.22
2019-02-15T19:02:46.090Z,98944.69
2019-02-15T19:05:14.444Z,98941.33
2019-02-15T19:07:42.700Z,98933.13
2019-02-15T19:10:14.190Z,98935.28
2019-02-15T19:12:42.528Z,98934.20
2019-02-15T19:15:13.299Z,98923.36
2019-02-15T19:17:41.571Z,98927.83
2019-02-15T19:20:12.234Z,98925.84
2019-02-15T19:22:40.504Z,98923.73
2019-02-15T19:25:11.027Z,98917.87
2019-02-15T19:27:40.930Z,98918.23
2019-02-15T19:30:15.334Z,98918.40
2019-02-15T19:32:43.698Z,98925.86
2019-02-15T19:35:12.030Z,98927.47
2019-02-15T19:37:41.959Z,98924.28
2019-02-15T19:40:15.340Z,98923.20
2019-02-15T19:42:44.962Z,98918.05
2019-02-15T19:45:13.481Z,98915.03
2019-02-15T19:47:41.776Z,98910.56
2019-02-15T19:50:13.304Z,98915.74
2019-02-15T19:52:41.692Z,98913.77
2019-02-15T19:55:10.806Z,98914.14
2019-02-15T19:57:39.072Z,98912.52
2019-02-15T20:00:19.042Z,98917.50
2019-02-15T20:02:49.129Z,98910.58
2019-02-15T20:05:20.609Z,98911.64
2019-02-15T20:07:49.028Z,98906.48
2019-02-15T20:10:24.463Z,98902.94
2019-02-15T20:12:56.974Z,98907.73
2019-02-15T20:15:25.316Z,98911.45
2019-02-15T20:17:53.663Z,98908.59
2019-02-15T20:20:22.023Z,98910.03
2019-02-15T20:22:59.306Z,98901.31
2019-02-15T20:25:27.822Z,98902.17
2019-02-15T20:27:56.312Z,98895.78
2019-02-15T20:30:24.600Z,98897.55
2019-02-15T20:32:52.998Z,98895.94
2019-02-15T20:35:23.042Z,98889.72
2019-02-15T20:37:51.861Z,98893.25
2019-02-15T20:40:21.892Z,98899.45
2019-02-15T20:42:52.074Z,98896.92
2019-02-15T20:45:23.682Z,98893.91
2019-02-15T20:47:52.315Z,98896.18
2019-02-15T20:50:21.109Z,98890.84
2019-02-15T20:52:49.473Z,98895.97
2019-02-15T20:55:19.382Z,98889.23
2019-02-15T20:57:49.826Z,98887.63
2019-02-15T21:00:30.848Z,98886.55
2019-02-15T21:02:59.284Z,98884.78
2019-02-15T21:05:27.668Z,98891.89
2019-02-15T21:07:55.954Z,98886.92
2019-02-15T21:10:24.220Z,98880.69
2019-02-15T21:12:52.545Z,98875.17
2019-02-15T21:15:24.189Z,98868.93
2019-02-15T21:17:52.589Z,98869.80
2019-02-15T21:20:20.951Z,98868.38
2019-02-15T21:22:49.310Z,98866.61
2019-02-15T21:25:17.793Z,98865.90
2019-02-15T21:27:46.049Z,98865.03
2019-02-15T21:30:18.399Z,98866.27
2019-02-15T21:32:46.696Z,98861.31
2019-02-15T21:35:15.146Z,98854.91
2019-02-15T21:37:43.406Z,98860.94
2019-02-15T21:40:17.194Z,98855.07
2019-02-15T21:42:45.462Z,98853.46
2019-02-15T21:45:13.892Z,98855.23
2019-02-15T21:47:42.164Z,98849.00
2019-02-15T21:50:17.068Z,98848.11
2019-02-15T21:52:44.353Z,98850.56
2019-02-15T21:55:12.986Z,98850.02
2019-02-15T21:57:41.349Z,98843.09
2019-02-15T22:00:17.738Z,98837.41
2019-02-15T22:02:46.023Z,98838.47
2019-02-15T22:05:14.325Z,98834.56
2019-02-15T22:07:42.586Z,98836.14
2019-02-15T22:10:10.896Z,98835.09
2019-02-15T22:12:39.183Z,98836.33
2019-02-15T22:15:12.174Z,98841.67
2019-02-15T22:17:40.472Z,98841.11
2019-02-15T22:20:25.920Z,98832.21
2019-02-15T22:22:46.674Z,98832.53
2019-02-15T22:25:14.936Z,98830.20
2019-02-15T22:27:43.223Z,98826.11
2019-02-15T22:30:14.211Z,98825.73
2019-02-15T22:32:42.798Z,98822.88
2019-02-15T22:35:11.149Z,98825.70
2019-02-15T22:37:41.111Z,98828.00
2019-02-15T22:40:31.235Z,98823.38
2019-02-15T22:43:05.295Z,98823.38
2019-02-15T22:45:33.527Z,98824.62
2019-02-15T22:48:01.814Z,98812.92
2019-02-15T22:50:36.177Z,98816.12
2019-02-15T22:53:00.071Z,98818.20
2019-02-15T22:55:28.356Z,98809.48
2019-02-15T22:57:56.614Z,98815.16
2019-02-15T23:00:56.438Z,98811.81
2019-02-15T23:03:26.465Z,98815.16
2019-02-15T23:05:54.924Z,98814.81
2019-02-15T23:08:23.164Z,98809.33
2019-02-15T23:10:51.433Z,98811.63
2019-02-15T23:13:19.758Z,98734.79
2019-02-15T23:15:48.122Z,98817.27
2019-02-15T23:18:16.370Z,98809.27
2019-02-15T23:20:45.607Z,98814.03
2019-02-15T23:23:14.022Z,98819.19
2019-02-15T23:25:42.296Z,98818.44
2019-02-15T23:28:10.566Z,98815.61
2019-02-15T23:30:38.879Z,98819.52
2019-02-15T23:33:07.163Z,98818.09
2019-02-15T23:35:35.460Z,98819.52
2019-02-15T23:38:03.785Z,98820.05
2019-02-15T23:40:32.160Z,98819.30
2019-02-15T23:43:00.433Z,98825.84
2019-02-15T23:45:28.700Z,98819.41
2019-02-15T23:47:56.975Z,98819.71
2019-02-15T23:50:25.277Z,98818.58
2019-02-15T23:52:53.546Z,98824.91
2019-02-15T23:55:21.819Z,98828.06
2019-02-15T23:57:50.078Z,98827.16
